Depesze METAR lotnisk w Polsce

METAR – format kodowanego raportu o pogodzie używany w meteorologii lotniczej i prognozie pogody. METAR jest akronimem od ang. Meteorological Aerodrome Report. Typowy METAR zawiera informację o temperaturze, ciśnieniu, temperaturze punktu rosy, sile i kierunku wiatru, opadzie, pokrywie chmur, wysokości podstawy chmur, widzialności, lecz może zawierać też inne informacje (np. stan dróg startowych).

Warszawa-Okęcie (EPWA)

METAR = EPWA 280000Z 27008KT CAVOK 09/03 Q1018 NOSIG

STACJA......... EPWA - Warszawa-Okęcie (WAW)
POMIAR......... Tue Mar 28, 02:00 CEST
WIATR.......... zachodni (W) z prędkością 15 km/h
WIDZIALNOŚĆ.... powyżej 10 kilometrów
CHMURY......... bezchmurne niebo
TEMPERATURA.... 9°C
T.PUNKTU ROSY.. 3°C
WILGOTNOŚĆ..... 66%
T.ODCZUWALNA... 7°C
CIŚNIENIE...... 1018 hPa
PROGNOZA....... bez nagłych zmian w ciągu 2h

Sprawdź też: Prognoza pogody Warszawa

Warszawa-Modlin (EPMO)

METAR = EPMO 272330Z 24009KT CAVOK 08/03 Q1018 =

STACJA......... EPMO - Warszawa-Modlin (WMI)
POMIAR......... Tue Mar 28, 01:30 CEST
WIATR.......... zachodni południowo-zachodni (WSW) z prędkością 17 km/h
WIDZIALNOŚĆ.... powyżej 10 kilometrów
CHMURY......... bezchmurne niebo
TEMPERATURA.... 8°C
T.PUNKTU ROSY.. 3°C
WILGOTNOŚĆ..... 71%
T.ODCZUWALNA... 5°C
CIŚNIENIE...... 1018 hPa

Sprawdź też: Prognoza pogody Nowy Dwór Mazowiecki

Kraków-Balice (EPKK)

METAR = EPKK 280000Z 21003KT 190V290 CAVOK 03/M00 Q1022

STACJA......... EPKK - Kraków-Balice (KRK)
POMIAR......... Tue Mar 28, 02:00 CEST
WIATR.......... południowo południowo-zachodni  (SSW) z prędkością 6 km/h
WIDZIALNOŚĆ.... powyżej 10 kilometrów
CHMURY......... bezchmurne niebo
TEMPERATURA.... 3°C
T.PUNKTU ROSY.. 0°C
WILGOTNOŚĆ..... 81%
T.ODCZUWALNA... 1°C
CIŚNIENIE...... 1022 hPa

Sprawdź też: Prognoza pogody Kraków

Łódź-Lublinek (EPLL)

METAR = EPLL 280000Z 23005KT CAVOK 06/02 Q1020

STACJA......... EPLL - Łódź-Lublinek (LCJ)
POMIAR......... Tue Mar 28, 02:00 CEST
WIATR.......... południowo-zachodni (SW) z prędkością 9 km/h
WIDZIALNOŚĆ.... powyżej 10 kilometrów
CHMURY......... bezchmurne niebo
TEMPERATURA.... 6°C
T.PUNKTU ROSY.. 2°C
WILGOTNOŚĆ..... 76%
T.ODCZUWALNA... 4°C
CIŚNIENIE...... 1020 hPa

Sprawdź też: Prognoza pogody Łódź

Wrocław-Strachowice (EPWR)

METAR = EPWR 280000Z 29005KT CAVOK 04/01 Q1022

STACJA......... EPWR - Wrocław-Strachowice (WRO)
POMIAR......... Tue Mar 28, 02:00 CEST
WIATR.......... zachodni północno-zachodni (WNW) z prędkością 9 km/h
WIDZIALNOŚĆ.... powyżej 10 kilometrów
CHMURY......... bezchmurne niebo
TEMPERATURA.... 4°C
T.PUNKTU ROSY.. 1°C
WILGOTNOŚĆ..... 81%
T.ODCZUWALNA... 2°C
CIŚNIENIE...... 1022 hPa

Sprawdź też: Prognoza pogody Wrocław

Katowice-Pyrzowice (EPKT)

METAR = EPKT 280000Z 28003KT 7000 NSC 02/M01 Q1022

STACJA......... EPKT - Katowice-Pyrzowice (KTW)
POMIAR......... Tue Mar 28, 02:00 CEST
WIATR.......... zachodni (W) z prędkością 6 km/h
WIDZIALNOŚĆ.... 7000 metrów
CHMURY......... brak istotnych chmur
TEMPERATURA.... 2°C
T.PUNKTU ROSY.. -1°C
WILGOTNOŚĆ..... 81%
T.ODCZUWALNA... 1°C
CIŚNIENIE...... 1022 hPa

Sprawdź też: Prognoza pogody Katowice

Gdańsk (EPGD)

METAR = EPGD 280000Z 29018KT 9999 BKN011 08/06 Q1017

STACJA......... EPGD - Gdańsk im. Lecha Wałęsy (GDN)
POMIAR......... Tue Mar 28, 02:00 CEST
WIATR.......... zachodni północno-zachodni (WNW) z prędkością 33 km/h
WIDZIALNOŚĆ.... powyżej 10 kilometrów
CHMURY......... zachmurzenie średnie (5/8-7/8)
TEMPERATURA.... 8°C
T.PUNKTU ROSY.. 6°C
WILGOTNOŚĆ..... 87%
T.ODCZUWALNA... 3°C
CIŚNIENIE...... 1017 hPa

Sprawdź też: Prognoza pogody Gdańsk

Poznań-Ławica (EPPO)

METAR = EPPO 280000Z 27004KT CAVOK 06/01 Q1021

STACJA......... EPPO - Poznań-Ławica (POZ)
POMIAR......... Tue Mar 28, 02:00 CEST
WIATR.......... zachodni (W) z prędkością 7 km/h
WIDZIALNOŚĆ.... powyżej 10 kilometrów
CHMURY......... bezchmurne niebo
TEMPERATURA.... 6°C
T.PUNKTU ROSY.. 1°C
WILGOTNOŚĆ..... 71%
T.ODCZUWALNA... 4°C
CIŚNIENIE...... 1021 hPa

Sprawdź też: Prognoza pogody Poznań

Rzeszów-Jasionka (EPRZ)

METAR = EPRZ 280000Z 25008KT CAVOK 05/00 Q1021

STACJA......... EPRZ - Rzeszów-Jasionka (RZE)
POMIAR......... Tue Mar 28, 02:00 CEST
WIATR.......... zachodni południowo-zachodni (WSW) z prędkością 15 km/h
WIDZIALNOŚĆ.... powyżej 10 kilometrów
CHMURY......... bezchmurne niebo
TEMPERATURA.... 5°C
T.PUNKTU ROSY.. 0°C
WILGOTNOŚĆ..... 70%
T.ODCZUWALNA... 2°C
CIŚNIENIE...... 1021 hPa

Sprawdź też: Prognoza pogody Rzeszów

Szczecin-Goleniów (EPSC)

METAR = EPSC 280000Z 14002KT CAVOK 05/01 Q1021

STACJA......... EPSC - Szczecin-Goleniów (SZZ)
POMIAR......... Tue Mar 28, 02:00 CEST
WIATR.......... południowo wschodni (SE) z prędkością 4 km/h
WIDZIALNOŚĆ.... powyżej 10 kilometrów
CHMURY......... bezchmurne niebo
TEMPERATURA.... 5°C
T.PUNKTU ROSY.. 1°C
WILGOTNOŚĆ..... 76%
CIŚNIENIE...... 1021 hPa

Sprawdź też: Prognoza pogody Szczecin

Lublin-Świdnik (EPLB)

METAR = EPLB 272330Z 27010KT CAVOK 08/03 Q1018 =

STACJA......... EPLB - Lublin-Świdnik (LUZ)
POMIAR......... Tue Mar 28, 01:30 CEST
WIATR.......... zachodni (W) z prędkością 19 km/h
WIDZIALNOŚĆ.... powyżej 10 kilometrów
CHMURY......... bezchmurne niebo
TEMPERATURA.... 8°C
T.PUNKTU ROSY.. 3°C
WILGOTNOŚĆ..... 71%
T.ODCZUWALNA... 5°C
CIŚNIENIE...... 1018 hPa

Sprawdź też: Prognoza pogody Lublin

Bydgoszcz-Szwederowo (EPBY)

METAR = EPBY 272330Z 28010KT CAVOK 07/02 Q1019 =

STACJA......... EPBY - Bydgoszcz-Szwederowo (BZG)
POMIAR......... Tue Mar 28, 01:30 CEST
WIATR.......... zachodni (W) z prędkością 19 km/h
WIDZIALNOŚĆ.... powyżej 10 kilometrów
CHMURY......... bezchmurne niebo
TEMPERATURA.... 7°C
T.PUNKTU ROSY.. 2°C
WILGOTNOŚĆ..... 71%
T.ODCZUWALNA... 4°C
CIŚNIENIE...... 1019 hPa

Sprawdź też: Prognoza pogody Bydgoszcz

Zielona Góra-Babimost (EPZG)

METAR = EPZG 272330Z 22006KT CAVOK 04/00 Q1022 =

STACJA......... EPZG - Zielona Góra-Babimost (IEG)
POMIAR......... Tue Mar 28, 01:30 CEST
WIATR.......... południowo-zachodni (SW) z prędkością 11 km/h
WIDZIALNOŚĆ.... powyżej 10 kilometrów
CHMURY......... bezchmurne niebo
TEMPERATURA.... 4°C
T.PUNKTU ROSY.. 0°C
WILGOTNOŚĆ..... 75%
T.ODCZUWALNA... 1°C
CIŚNIENIE...... 1022 hPa

Sprawdź też: Prognoza pogody Zielona Góra

Szymany Olsztyn-Mazury (EPSY)

METAR = EPSY 272330Z NIL=

STACJA......... EPSY - Olsztyn-Mazury (SZY)
POMIAR......... Tue Mar 28, 01:30 CEST
DEPESZA........ brak aktualnej prognozy w treści depeszy

Sprawdź też: Prognoza pogody Olsztyn